SMRA60 UAOL 242100
AAXX 24211
60060 42/// /3404 10171 20162 40169 8////=
60101 32456 41205 10163 20127 40149 53019 83202 333 83816=
60107 41558 73206 10177 20155 40149 51018 72162 8433/ 333 84626 81933 85358 95380=
60115 32459 83309 10144 20136 40136 53026 8783/ 333 83813 85826=
60135 32450 82004 10160 20120 40148 53015 8683/ 333 83813 85616 86356=
60141 31460 80204 10128 20125 39488 40167 52016 70292 889// 333 83813 86826 82930=
60150 41450 80000 10126 20123 39501 40152 53009 79596 889// 333 82813 87820 82926=
60156 41558 81715 10138 20138 40162 53020 76162 882// 333 88820=
60210 32584 22704 10181 21002 38940 48464 52015 82030 333 82358=
60220 32/// /2900 10178 20156 40164 8////=
60230 21558 72506 10154 20093 40152 51023 72102 878// 333 83823 85626=
60252 45560 32309 10168 20143 40159 53017 83800 333 82620=
60318 47658 73603 10166 20131 40149 51020 71322 81332 333 81933 82360 85070=
60340 31440 62808 10158 20122 40141 53018 71022 85830 333 83712 83820=
61053 42960 70000 10348 20158 39800 40041 80008 333 59012 87280=
62009 32960 01305 10218 20119 30035 52014=
62458 32960 02806 10230 20123 40113 52005=
64570 41458 81806 10225 20218 39629 40124 71799 8297/ 333 58029 82610 82916 88460 94943 95833 95836=
64810 42460 20000 10275 20261 30086 40116 82500 333 58005 82614=
67005 24970 /2606 10269 20227 40128 700// 333 58021 60007 90710 91110 555 60005=
68004 46/// /0903 10178 20079 38577 48531 50000 333 10302 20169 91006 555 91021=
68098 46/// /0000 10165 20130 30062 40170 52011 333 10277 20165 91001 555 91017=
68155 46/// /1402 10179 20096 39233 48551 52007 333 10307 20179 91004=
68163 46/// /1302 10141 20047 39079 48560 53007 333 10320 20141 91004=
68172 46/// /1102 10220 20121 39382 48561 52007 333 10336 20219 91003=
68179 46/// /1406 10184 20100 39153 48578 52006 333 10314 20174 91008=
68183 46/// /0000 10176 20147 39485 48561 53003 333 10310 20176 91001=
68185 46/// /0904 10158 20099 38636 48573 52012 333 10299 20155 91008=
68187 46/// /0000 10204 20152 39660 48574 52017 333 10324 20203 91003=
68188 46/// /0302 10164 20122 39253 48567 52007 333 10309 20158 91005=
68189 46/// ///// 10198 20131 39068 48579 52003 333 10288 20189=
68196 46/// /0000 10203 20160 39656 48572 52006 333 10309 20202 91002=
68237 46/// /1102 10142 20080 38954 48564 52005 333 10320 20142 91003=
68241 46/// /2607 10153 20058 39042 48553 52006 333 10314 20124 91008=
68248 46/// /1904 10138 20071 39004 48569 52008 333 10306 20125 91009=
68249 46/// /0000 10114 20079 38832 48565 53007 333 10296 20111 91003=
68255 46/// /2202 10130 20087 38912 48549 52005 333 10297 20130 91004=
68257 46/// /0902 10157 20077 38978 48551 52005 333 10312 20157 91003=
68258 46/// /0000 10135 20083 38907 48564 52012 333 10315 20135 91002=
68260 46/// /0000 10149 20054 38694 48570 53556 333 10306 20149 91001=
68261 42970 00000 10173 20026 38545 48561 52007 333 10287 20170 91001=
68266 46/// /0702 10132 21099 38825 48554 52003 333 10310 20111 91003=
68269 46/// /0000 10190 20062 38619 48558 51001 333 10291 20177 91002=
68271 46/// /3302 10160 20095 38968 48564 52007 333 10317 20155 91004=
68273 46/// /0903 10135 20081 38516 48570 52008 333 10288 20132 91004=
68274 46/// /1902 10117 20066 38672 48561 52008 333 10302 20109 91005=
68283 46/// /0000 10141 20126 38946 48575 52008 333 10295 20141 91002=
68285 46/// /0602 10119 20099 38204 48587 52006 333 10253 20118 91004=
68287 46/// /3503 10139 20109 38629 48562 51001 333 10249 20138 91004=
68289 46/// /2504 10177 20136 39211 48574 52006 333 10290 20172 91006=
68297 46/// /2403 10206 20185 39970 48590 52007 333 10317 20206 91004=
68329 46/// /0504 10172 20073 39121 48543 50000 333 10330 20164 91006=
68333 46/// /1602 10113 20080 38737 48552 52006 333 10280 20113 91003=
68335 46/// /0703 10159 20082 38952 48556 53006 333 10301 20137 91004=
68341 46/// /0603 10114 20057 38593 48587 52007 333 10288 20112 91004=
68343 46/// ///// 10114 20075 38845 48558 52006 333 10303 20114=
68345 46/// /0404 10156 20041 38723 48563 52005 333 10283 20151 91005=
68347 46/// /3202 10122 20054 38747 48569 53005 333 10290 20118 91004=
68348 46/// /0000 10111 20078 38806 48562 52002 333 10294 20111 91006=
68353 46/// ///// 10107 20054 38579 48557 52002 333 10277 20100=
68355 46/// /0905 10166 20019 38633 48571 52005 333 10276 20166 91006=
68361 46/// /2702 10146 20040 38438 48562 52005 333 10293 20141 91004=
68371 46/// /0406 10122 20063 38439 48596 58001 333 10281 20122 91010=
68375 46/// /1402 10093 20033 38406 48582 53007 333 10285 20092 91003=
68376 46/// /3502 10158 21011 38306 48570 52005 333 10263 20137 91005=
68379 46/// /0000 10189 20177 39885 48595 52013 333 10323 20187 91014 555 91021=
68382 46/// /1837 10162 20101 39413 48577 52013 333 1//// 20132 91088 555 91023=
68383 46/// ///// 10254 20238 39681 48364 53020 333 10383 20244 555 90992=
68384 46/// /0000 10156 20146 39801 48568 52016 333 10320 20156 91002=
68387 46/// ///// 10146 20104 38913 48565 52002 333 10296 20146=
68392 46/// /2502 10151 20122 38772 48368 53010 333 10287 20151 91005 555 20002 91001=
68394 46/// /2403 10193 20152 39906 48603 52010 333 10364 20191 91005 555 91022=
68397 46/// /2402 10194 20189 30102 40199 52014 333 10318 20193 91003=
68398 46/// /1005 10187 20177 39431 48567 52006 333 10285 20184 91015 555 91021=
68429 46/// /1004 10163 20106 38726 48544 53003 333 10313 20163 91006=
68439 46/// /1004 10155 20071 38925 48537 52010 333 10281 20154 91005=
68443 46/// /2202 10119 20093 38654 48556 52003 333 10276 20119 91002=
68447 46/// /1203 10113 20085 38764 48552 51005 333 10284 20113 91004=
68449 46/// /3502 10101 20060 38450 48579 53002 333 10246 20101 91003=
68471 46/// /0304 10096 20029 38382 48567 52006 333 10266 20094 91005=
68474 46/// /2703 10094 20070 38679 48564 52002 333 10297 20092 91004=
68479 46/// ///// 10117 20092 39006 48554 52006 333 10386 20112=
68481 46/// /1504 10191 20170 39829 40201 52010 333 10308 20184 91005=
68485 46/// /0000 10128 20128 38677 48565 52005 333 10273 20092 91008=
68487 46/// /0000 10167 20160 39047 48562 51001 333 10312 20164 91001=
68491 46/// /2102 10221 20200 30180 40189 52006 333 10289 20209 91005=
68492 46/// /0000 10232 20213 30140 48617 52005 333 10307 20232 91002=
68493 46/// /0403 10179 20162 39604 48582 52006 333 10330 20168 91005=
68494 46/// /3003 10201 20177 30060 40193 53002 333 10342 20200 91004=
68495 46/// /2506 10219 20193 30148 40190 52001 333 10310 20216 91010=
68523 46/// /0902 10158 20060 39118 48522 50000 333 10247 20157 91003=
68527 46/// /0000 10161 20076 39102 48533 52003 333 10281 20161 91002=
68541 46/// /0000 10112 20075 38672 48554 52004 333 10260 20112 91006=
68543 46/// /2002 10132 20074 38773 48538 53000 333 10267 20132 91004=
68549 46/// ///// 10140 20061 38653 48564 57003 333 10247 20120=
68558 46/// /0203 10151 20030 38237 48553 58000 333 10228 20138 91010=
68573 46/// /0702 10162 20152 38922 48567 52003 333 10295 20161 91004=
68575 46/// /1002 10172 20159 39152 48571 51001 333 10311 20172 91003=
68579 46/// /0000 10188 20179 39618 48580 51001 333 10263 20187 91002=
68581 46/// /1302 10185 20166 39432 48574 51003 333 10309 20184 91003=
68582 46/// /1303 10180 20167 39382 48573 55000 333 10317 20178 91004=
68583 46/// /0000 10198 20177 30082 40193 52003 333 10335 20198 91001=
68585 46/// /3004 10211 20188 30173 40190 52002 333 10259 20211 91005=
68587 46/// /3203 10213 20190 30175 40191 51002 333 10256 20213 91005=
68589 46/// /2006 10119 21002 38317 48577 52005 333 10264 20115 91010=
68591 46/// /2802 10194 20180 30020 40199 51002 333 10270 20194 91003=
68592 46/// /2702 10202 20188 30074 40199 52005 333 10310 20202 91003=
68593 46/// /3003 1//// 2//// 30178 4//// 52005 333 1//// 2//// 91004=
68613 46/// /1104 10132 20121 30046 40159 52003 333 10208 20127 91006=
68619 46/// /0000 10115 20104 39330 48500 57003 333 10189 20115 91005=
68633 46/// /0000 10095 20043 38548 48541 53001 333 10239 20095 91001=
68647 46/// /0000 10121 20100 38965 48555 53012 333 10278 20121 91007=
68649 46/// /2818 10101 20053 38449 48565 57003 333 10227 20101 91025=
68651 46/// /1404 10120 20107 38595 48556 52002 333 10255 20119 91006=
68677 46/// /3203 10192 20161 30088 40193 50000 333 10245 20180 91004=
68695 46/// /0000 10093 20080 30123 48513 57003 333 10208 20091 91002=
68710 46/// /0000 10102 20088 30144 48519 56001 333 10230 20098 91002=
68711 46/// /0000 10147 20122 30039 40158 50000 333 10209 20147 91002=
68713 46/// /1302 10142 20115 30045 48544 50000 333 10220 20141 91003=
68715 46/// /0000 10120 20099 30043 48526 51001 333 10237 20120 91002=
68716 46/// /1302 10131 20106 39954 48531 58002 333 10212 20130 91005=
68717 46/// /0000 10120 20100 30012 48520 58002 333 10228 20117 91002=
68719 46/// /3002 10078 20051 39094 48518 57002 333 10173 20069 91004=
68723 46/// /0204 10154 20067 39417 48534 52002 333 10226 20141 91005=
68727 46/// /3603 10146 20077 39148 48524 52005 333 10246 20146 91009=
68737 46/// /1504 10151 20079 39275 48537 52007 333 10279 20143 91007=
68747 46/// /0000 10125 20086 39658 48542 58003 333 10239 20125 91001=
68809 46/// /0404 10116 20106 30018 48522 50000 333 10208 20109 91005=
68810 46/// /1902 10130 20102 39960 48533 58002 333 10220 20130 91003=
68811 46/// /0703 10089 20086 30164 40172 58002 333 10212 20081 91004=
68812 46/// /3103 10105 20086 39986 48524 55000 333 10191 20105 91005=
68813 46/// /0502 10127 20116 30159 40161 58002 333 10195 20112 91004=
68815 46/// /1202 10106 20076 39631 48517 58005 333 10212 20103 91003=
68817 46/// /0000 10151 20124 30156 40169 56001 333 10210 20150 91002=
68819 46/// /0000 10150 20112 30053 48546 50000 333 10191 20150 91002=
68820 46/// /0000 10142 20119 30157 48551 50000 333 10209 20142 91003=
68821 46/// /1203 10145 20080 39930 48542 53006 333 10227 20137 91005=
68822 46/// /0000 10107 20100 39890 48524 58002 333 10215 20106 91001=
68823 46/// /0803 10130 20064 39555 48532 52003 333 10240 20117 91005=
68825 46/// /3003 10128 20075 39557 48535 52011 333 10241 20128 91005=
68827 46/// /0702 10149 20086 39797 48549 52004 333 10247 20138 91003=
68829 46/// /0000 10103 20080 39875 40192 52007 333 10222 20102 91003=
68833 46/// /0000 10099 20066 39530 48535 53006 333 10213 20099 91001=
68835 46/// /3502 10139 20083 30084 40198 53002 333 10248 20139 91004=
68837 46/// /2804 10125 20093 30136 40193 52002 333 10242 20124 91005=
68839 46/// /3502 10112 20087 30011 48549 52003 333 10243 20111 91003=
68840 46/// /0904 10104 20071 39598 48538 52005 333 10257 20104 91006=
68841 46/// /0000 10115 20092 30024 48548 52002 333 10272 20115 91002=
68843 46/// /2804 10148 20116 30089 40189 51001 333 10230 20129 91006=
68844 46/// /2903 10143 20113 30128 40200 53003 333 10227 20143 91005=
68846 46/// /2704 10136 20096 30177 48570 57005 333 10233 20134 91006=
68848 46/// /2803 10169 20114 30180 48587 52002 333 10238 20169 91004=
68849 46/// /1303 10111 20081 39453 48539 50000 333 10196 20108 91004=
68911 46/// /0803 10142 20108 30160 40168 58002 333 10211 20141 91004=
68912 46/// /0906 10161 20106 30157 40166 57001 333 10189 20143 91008=
68918 46/// /0603 10148 20126 30157 40173 52008 333 10204 20147 91006=
68921 46/// /3103 10139 20110 30173 40177 52007 333 10206 20136 91004=
68922 46/// /0903 10145 20091 30005 48556 56002 333 10241 20145 91005=
68923 46/// /0904 10147 20095 39997 48555 51003 333 10250 20146 91007=
68924 46/// /1102 10144 20096 30155 48553 51007 333 10250 20126 91003=
68925 46/// /0000 10107 20091 39827 48526 53004 333 10180 20107 91002=
68927 46/// /3604 10129 20104 30060 40184 52005 333 10232 20120 91005=
68931 46/// /0304 10148 20108 30031 40196 52007 333 10206 20145 91005=
68933 46/// /0608 10137 20097 30182 40190 52005 333 10220 20137 91011=
68935 46/// /0000 10127 20095 30122 40187 52005 333 10236 20127 91001=
68939 46/// /3406 10161 2//// 30187 40197 53004 333 10224 20161 91008=
68999 46/// /0000 10142 20115 30120 48547 50000 333 10211 20141 91003=



SMUS60 KWBC 242100
AAXX 24214
60001 26/// /3514 10189 20152 30194 40232 53011 333 60007=
60005 26/// /0219 10183 20148 30178 40215 53014 333 60007=
60010 26/70 /0115 10029 20029 37711 47145 53008 333 60007=
60015 26/// /2916 10134 20128 39513 40229 53014 333 60007=
60020 26/70 /3412 10192 20122 30179 40222 53012 333 60007=
60025 22/80 /2508 10189 20140 30125 40216 53009 333 60007=
60030 22565 53512 10185 20127 30158 40214 53010 858// 333 60007=
60035 22570 73515 10188 20136 30164 40199 53009 87800 333 60007=
60040 22570 73510 10178 20133 30172 40197 51016 87500 333 60007=
60096 32458 00218 10184 20149 40193 53011=
60320 26/63 /1805 10176 20133 30046 40150 51019 333 60007=
60338 21359 62805 10167 20147 30081 40146 53017 76022 8578/ 333 60007 82709 84617=
60351 42960 60000 10188 20158 40141 52010 80002 333 86070 95990=
60360 42557 10301 10168 20154 40146 51012 81202 333 81823 95990=
60369 42556 50000 10178 20163 40121 51006 83101 333 83823 91826=
60390 42557 60408 10172 20159 40129 51009 81234 333 81826 85070 95990=
60419 42960 31605 10185 20147 40153 52016 80002 333 83070 95990=
60425 42559 40206 10248 20177 40104 53019 84900 333 81926 84830 95990=
60445 42560 41004 10206 20083 39032 48535 52018 81232 333 81830 95990=
60452 41560 73412 10176 20166 40107 51024 72996 872// 333 87823=
60468 42960 30803 10214 20114 39228 48530 52018 80002 333 83070 95990=
60475 42660 11404 10216 20038 39250 48548 53020 81502 333 81640 95990=
60490 41556 63612 10167 20155 40110 51002 72996 86900 333 86626 81930 95990=
60507 41559 70000 10150 20127 40089 53025 71362 84902 333 81926 83630 85073 95990=
60511 41558 61210 10164 20140 39034 48500 53026 72998 86900 333 82923 84826 95990=
60525 42660 62304 10289 20093 40153 53035 83930 333 81933 84360 95990=
60531 41440 83403 10156 20147 40124 52018 71092 882// 333 84710 85826 95990=
60550 41558 71208 10154 20095 38611 48472 50001 72996 879// 333 82926 87828 95990=
60555 42658 50905 10297 20050 40120 53017 82232 333 82840 83073=
60559 42658 40910 10290 20067 40128 53018 82502 333 82640=
60566 42560 62402 10266 20095 40109 50019 85930 333 82930 84840=
60571 42560 42414 10214 20023 39168 48465 52008 83280 333 83830 95990=
60580 42658 62608 10319 20039 40123 53031 83230 333 83846 83360=
60581 42658 80804 10308 20078 40119 53002 8323/ 333 83840 85360=
60590 41658 51013 10259 20126 40107 52002 76062 83230 333 83833=
60607 42759 12415 10286 20037 40065 53018 81100 333 81856=
60611 42958 40914 10297 21016 40114 51007 80004 333 84070=
60620 42760 52308 10286 21016 40075 53012 82232 333 82850=
60630 42750 73204 10348 21026 40062 53007 84232 333 84856=
60640 42958 41107 10309 20022 40093 51012 82032 333 82360 83073=
60656 42660 12020 10182 20084 40131 52015 81200 333 81846=
60670 42950 41017 10288 20088 39057 48530 51013 80002 333 84070 95990=
60680 42960 41504 10265 2//// 38647 48529 51013 80002 333 84073 95990=
61017 42960 50000 10270 20048 39674 40063 80002 333 58000 85080=
61036 42960 50000 10333 20109 39829 40058 80002 333 59004 85080=
61043 42960 40000 10342 20036 39636 40047 80002 333 58005 84080=
61045 42960 70000 10310 20030 39585 40059 80008 333 58004 87280=
61049 42960 70000 10322 20052 39/// 4//// 80008 333 5//// 87280=
61052 41956 50000 10360 20132 39814 40057 70622 80002 333 59001 85080=
61075 42960 70000 10343 20114 39765 40061 80008 333 58000 87280=
61080 42960 73004 10340 20083 39657 40059 80008 333 59002 87280=
61085 42960 50000 10315 20075 39/// 4//// 80002 333 5//// 85080=
61091 42965 70000 10313 20115 39630 40065 80008 333 58000 87280=
61096 42960 70402 10334 20067 39695 40060 80008 333 58007 87280=
61099 42960 50000 10370 20151 39832 40051 80001 333 59001 85080=
61901 463// /1321 10204 20197 39686 40190 52011 333 87/06 84/16 90710 91127 555 7/097=
61902 41480 31315 20247 20261 40133 72581 83800 333 59003 83812 90710 91127=
61970 46/// /1806 10271 20225 30117 40128 333 58008=
61980 24763 83103 10249 20218 40106 700// 333 58020 60007 90710 91111 555 60005=
62007 32958 00712 10193 20145 40176 50004=
62008 32960 01007 10220 20069 39397 48561 53013=
62012 32960 01205 10194 20129 30170 40200 52011=
62016 32960 01403 10174 20128 40223 51013=
62053 31958 00110 10161 20152 40200 51006 71000=
62161 32960 03410 10220 20074 40155 53007=
62176 32960 00310 10185 20122 40170 53020=
62259 32960 00310 10240 20053 40160 51012=
62306 32560 53111 10116 20123 40163 52005 85500=
62309 32560 33103 10181 20116 40135 57001 83500=
62318 32560 23404 10182 20098 40137 57002 82100=
62332 32960 02506 10186 20148 40139 52007=
62357 32560 46602 10168 20104 40141 52001 84500=
62366 24560 60311 10193 20126 40132 52002 70292 86200 333 60027=
62387 32960 03404 10194 20090 40127 52011=
62393 32960 03608 10204 20046 40138 57003=
62405 32960 23205 10258 20069 40101 52004 82030=
62417 32960 01006 10198 20102 40164 52016=
62419 32960 03408 10259 21003 40104 52005=
62420 32960 43302 10170 20050 40146 54000 84050=
62423 62309 32560 33103 10181 20116 40135 57001 83500=
62432 32960 02505 10184 20071 40126 52003=
62435 32960 03105 10234 20038 40113 52006=
62440 62458 32960 02806 10230 20123 40113 52005=
62455 32960 03208 10208 20128 40160 52020=
62459 32960 02911 10228 20160 40097 54000=
62465 32960 00000 10204 20141 40092 52004=
63980 429// 19904 10279 20248 40110 333 59006 91111=
64400 42460 42606 10285 20250 30103 40122 84100 333 59003 84813 94902 95872=
64402 41459 50000 10250 20227 39534 40103 71392 85930 333 58001 84613 81926 94944 95834=
64450 41560 62306 10260 20210 39752 40102 71311 81962 333 59001 81930 86080 94944 95834=
64453 41457 83608 10220 20205 39/// 48/// 79596 8592/ 333 5//// 83610 82923 88460 94959 95839=
64454 41457 81404 10245 20216 39/// 40/// 71399 889// 333 5//// 88613 81930 94946 95836=
64458 42460 70000 10225 20218 39722 40107 8497/ 333 58015 84613 81926 87360 94946 95836=
64459 42960 70000 10225 20219 39759 40124 8705/ 333 58017 87360=
64462 41458 82204 10238 20221 39/// 40/// 72996 885// 333 5//// 88615=
64500 41460 62408 10293 20259 30112 40126 71799 86900 333 59009 83610 81920 86640 94946 95836=
64501 41460 62008 10280 20246 30120 40129 71799 85900 333 58008 83810 81920 85630 94942 95832=
64700 42960 61808 10368 20173 39732 40054 84032 333 58008 84365 85075=
65046 41958 62110 10312 20180 30571 40100 70722 80008 333 58012 86280=
65101 42960 71806 10295 20238 39721 40106 80038 333 58004 85360 87280=
65123 41460 70610 10280 20237 30054 40068 79596 82978 333 58002 82611 82920 86360 94959=
65201 42460 70000 10285 20253 30085 40134 82508 333 55408 40000 58000 82612 86280=
65250 42358 70000 10248 20236 30094 40127 70522 84578 333 55408 40000 59008 84608 86460=
65528 42458 71604 10250 20223 39635 40100 71396 83902 333 59014 83613 81923 87076 94943 95833=
65545 42960 20000 10282 20240 39699 40106 82030 333 58004 82360=
65548 41460 50000 10258 20249 39747 40111 71311 85300 333 58004 85613 81915 94944 95834=
65555 42960 22004 10277 20240 39689 40106 80002 333 58003 82076=
65557 42458 30000 10280 20253 39874 40102 83500 333 59001 83613=
65560 42960 4//// 10295 20256 39808 40112 84030 333 58003 84360=
65562 42460 6//// 10291 20259 30012 40135 82570 333 59001 82613 86360=
65563 42460 63002 10278 20255 39869 40095 82502 333 58002 82613 86076=
65585 42960 12202 10275 20254 30072 40110 81030 333 58000 81360=
65592 42460 32208 10277 20250 30094 40116 83200 333 58007 83813 94904=
65594 42460 52008 10285 20250 30082 40116 81530 333 58004 81613 85360=
65599 42460 61804 10279 20251 30047 40121 82230 333 58002 82815 86360 94908=
67215 42575 12206 10249 20198 40156 81100 333 58013=
67237 42570 6//// 10216 20191 40168 86500 333 58014=
67283 42580 32103 10238 20211 40170 83200 333 58009=
67295 42980 02304 10178 20152 39414 48574 333 58004=
67323 42980 00000 10225 20202 40190 50013=
67665 42980 11703 10156 20112 48546 81030 333 58002 81360=
68110 46/// /2903 10176 20056 38328 48550 52011 333 10275 20161 91005 555 91025=
68112 46/// /2706 10138 20064 38376 48562 52011 333 10267 20109 91011 555 91026=
68174 46/// /2103 10164 20084 38841 48561 52006 333 10294 20152 91004=
68176 46/// /1602 10171 20098 39184 48558 52010 333 10333 20162 91004=
68182 46/// /1903 10180 20135 39395 48571 52016 333 10312 20175 91004=
68184 46/// /3602 10201 20136 39113 48579 53002 333 10273 20193 91004=
68186 46/// /2803 10206 20152 39341 48583 53005 333 10325 20181 91008=
68192 46/// /0000 10174 20155 39547 48605 53004 333 10324 20174 91003=
68242 46/// /0406 10121 20053 38787 48559 52010 333 10307 20121 91007=
68250 46/// /3002 10140 20092 39022 48547 58000 333 10319 20140 91002=
68254 46/// /2203 10144 20072 38845 48566 52006 333 10330 20122 91004=
68263 42980 00803 10190 20037 38548 48572 52005 333 10293 20180 91005=
68264 46/// /1102 1//// 2//// 38576 4//// 52008 333 1//// 2//// 91003=
68268 46/// /0000 10136 20062 38935 48564 52007 333 10295 20129 91004=
68272 46/// /0000 10152 20094 39141 48572 52008 333 10313 20147 91003=
68290 46/// /0000 10199 20139 39240 48589 52008 333 10286 20194 91001=
68296 46/// /0000 10173 20130 39108 4//// 53003 333 10360 20173 91002 555=
68312 46/// /0000 10223 20031 38973 48538 52007 333 10323 20223 555 91019=
68322 46/// /0503 10177 20086 39158 48523 57005 333 10323 20169 91005=
68336 46/// /2802 10119 20084 38887 48548 51002 333 10298 20119 91003=
68338 46/// /3304 10121 20087 38818 48553 58003 333 10292 20112 91005=
68342 46/// /0000 10090 20042 38568 48563 58001 333 10283 20090 91001=
68350 46/// /0702 10088 20060 38717 48559 52006 333 10298 20086 91003=
68351 46/// /3202 10086 20051 38497 48578 51005 333 10278 20086 91003=
68352 46/// /0403 10153 20032 38695 48850 52001 333 10292 20143 91006 555=
68362 46/// /0000 10084 20051 38568 48574 51000 333 10290 20076 91002=
68368 41960 02410 10136 20026 38376 48570 51005 70500=
68380 46/// /0604 10117 20097 38412 48580 51002 333 10279 20114 91006=
68400 46/// /2002 10198 20172 30108 40182 52006 333 10314 20198 91004=
68424 46/// /0806 10188 20061 39209 48527 51001 333 10291 20173 91007=
68438 46/// /3305 10139 20060 38850 48536 51001 333 10297 20138 91005=
68461 46/// /0402 10099 20045 38385 48576 52007 333 10254 20092 91003=
68478 46/// /2202 10132 20070 38883 48530 51001 333 10282 20132 91005=
68488 46/// /0000 10164 20147 39323 48563 52005 333 10317 20143 91003=
68524 46/// /1502 10159 20050 39086 48534 50000 333 10257 20152 91003=
68538 46/// /1302 10161 20032 38757 48539 52003 333 10243 20158 91003=
68542 46/// /0302 10129 20080 38592 48558 52003 333 10264 20118 91003=
68546 46/// /0203 10111 20076 38701 48545 53001 333 10260 20100 91005=
68572 46/// /0000 10104 20103 38461 48570 50000 333 10272 20095 91002=
68580 46/// /0702 10146 20138 39012 48567 58002 333 10302 20146 91004=
68614 46/// /3502 10140 20128 30108 40158 57005 333 10221 20140 91003=
68618 46/// /0505 10118 20088 39058 48510 58001 333 10215 20117 91006=
68648 46/// /0000 10073 20031 38299 48567 52001 333 10213 20073 91000=
68668 46/// /1011 10162 20155 39344 48559 50000 333 10238 20162 91015=
68674 46/// /0302 1//// 2//// 30154 4//// 51003 333 1//// 2//// 91005=
68712 46/// /1705 10115 20113 30085 40160 57005 333 10143 20095 91006=
68714 46/// /0000 10109 20083 30119 48517 57006 333 10195 20106 91002=
68718 46/// /0602 10143 20085 39933 48551 54000 333 10244 20143 91003=
68722 46/// /0000 10074 20058 38564 48519 57003 333 10169 20074 91002=
68744 46/// /1207 10126 20073 39128 48529 52003 333 10281 20126 91010=
68752 46/// /0607 10140 20094 39510 48551 58002 333 10216 20140 91010=
68754 46/// /0206 10129 20090 39169 48542 58005 333 10209 20125 91010=
68816 42970 09901 10134 20110 30113 40168 50000 333 10211 91002=
68832 46/// /0806 10131 20078 39237 48544 52008 333 10233 20131 91011=
68906 42598 52508 10135 20099 30159 40224 50000 85500 333 10152 20129 91015 555 91022=
68916 46/// /0103 10141 20095 39902 40173 51001 333 10187 20138 91004=
68920 46/// /0802 10163 20128 30171 40184 58001 333 10206 20159 91005=
68926 46/// /1002 10137 20099 30012 40194 57003 333 10244 20137 91003=
68928 46/// /0000 10142 20112 30017 40178 52004 333 10211 20142 91000=
68994 41494 7//// 10090 20079 39859 49887 58005 72588 85020 333 10106 20088 555 20104 90988=